sensor_id;sensor_type;location;lat;lon;timestamp;temperature;humidity
39033;DHT22;24794;51.982;5.878;2023-03-31T00:00:36;12.00;99.90
39033;DHT22;24794;51.982;5.878;2023-03-31T00:01:37;12.00;99.90
39033;DHT22;24794;51.982;5.878;2023-03-31T00:02:41;12.00;99.90
39033;DHT22;24794;51.982;5.878;2023-03-31T00:03:42;12.00;99.90
39033;DHT22;24794;51.982;5.878;2023-03-31T00:04:43;12.00;99.90
39033;DHT22;24794;51.982;5.878;2023-03-31T00:05:56;12.00;99.90
39033;DHT22;24794;51.982;5.878;2023-03-31T00:06:57;12.00;99.90
39033;DHT22;24794;51.982;5.878;2023-03-31T00:07:58;12.00;99.90
39033;DHT22;24794;51.982;5.878;2023-03-31T00:09:01;12.00;99.90
39033;DHT22;24794;51.982;5.878;2023-03-31T00:10:03;12.00;99.90
39033;DHT22;24794;51.982;5.878;2023-03-31T00:11:05;12.10;99.90
39033;DHT22;24794;51.982;5.878;2023-03-31T00:12:09;12.10;99.90
39033;DHT22;24794;51.982;5.878;2023-03-31T00:13:09;12.00;99.90
39033;DHT22;24794;51.982;5.878;2023-03-31T00:14:11;12.10;99.90
39033;DHT22;24794;51.982;5.878;2023-03-31T00:15:11;12.10;99.90
39033;DHT22;24794;51.982;5.878;2023-03-31T00:16:12;12.10;99.90
39033;DHT22;24794;51.982;5.878;2023-03-31T00:17:13;12.10;99.90
39033;DHT22;24794;51.982;5.878;2023-03-31T00:18:13;12.10;99.90
39033;DHT22;24794;51.982;5.878;2023-03-31T00:19:14;12.10;99.90
39033;DHT22;24794;51.982;5.878;2023-03-31T00:20:19;12.10;99.90
39033;DHT22;24794;51.982;5.878;2023-03-31T00:21:21;12.10;99.90
39033;DHT22;24794;51.982;5.878;2023-03-31T00:22:28;12.10;99.90
39033;DHT22;24794;51.982;5.878;2023-03-31T00:23:29;12.10;99.90
39033;DHT22;24794;51.982;5.878;2023-03-31T00:24:31;12.20;99.90
39033;DHT22;24794;51.982;5.878;2023-03-31T00:25:32;12.20;99.90
39033;DHT22;24794;51.982;5.878;2023-03-31T00:26:34;12.30;99.90
39033;DHT22;24794;51.982;5.878;2023-03-31T00:27:36;12.20;99.90
39033;DHT22;24794;51.982;5.878;2023-03-31T00:28:36;12.30;99.90
39033;DHT22;24794;51.982;5.878;2023-03-31T00:29:37;12.30;99.90
39033;DHT22;24794;51.982;5.878;2023-03-31T00:30:40;12.30;99.90
39033;DHT22;24794;51.982;5.878;2023-03-31T00:31:41;12.20;99.90
39033;DHT22;24794;51.982;5.878;2023-03-31T00:32:41;12.30;99.90
39033;DHT22;24794;51.982;5.878;2023-03-31T00:33:42;12.30;99.90
39033;DHT22;24794;51.982;5.878;2023-03-31T00:34:44;12.30;99.90
39033;DHT22;24794;51.982;5.878;2023-03-31T00:35:48;12.20;99.90
39033;DHT22;24794;51.982;5.878;2023-03-31T00:36:50;12.30;99.90
39033;DHT22;24794;51.982;5.878;2023-03-31T00:37:55;12.30;99.90
39033;DHT22;24794;51.982;5.878;2023-03-31T00:39:02;12.30;99.90
39033;DHT22;24794;51.982;5.878;2023-03-31T00:40:06;12.30;99.90
39033;DHT22;24794;51.982;5.878;2023-03-31T00:41:09;12.30;99.90
39033;DHT22;24794;51.982;5.878;2023-03-31T00:42:10;12.30;99.90
39033;DHT22;24794;51.982;5.878;2023-03-31T00:43:28;12.30;99.90
39033;DHT22;24794;51.982;5.878;2023-03-31T00:44:30;12.30;99.90
39033;DHT22;24794;51.982;5.878;2023-03-31T00:45:32;12.30;99.90
39033;DHT22;24794;51.982;5.878;2023-03-31T00:46:45;12.30;99.90
39033;DHT22;24794;51.982;5.878;2023-03-31T00:47:54;12.30;99.90
39033;DHT22;24794;51.982;5.878;2023-03-31T00:48:56;12.30;99.90
39033;DHT22;24794;51.982;5.878;2023-03-31T00:49:57;12.30;99.90
39033;DHT22;24794;51.982;5.878;2023-03-31T00:51:03;12.20;99.90
39033;DHT22;24794;51.982;5.878;2023-03-31T00:52:29;12.30;99.90
39033;DHT22;24794;51.982;5.878;2023-03-31T00:53:31;12.20;99.90
39033;DHT22;24794;51.982;5.878;2023-03-31T00:54:33;12.20;99.90
39033;DHT22;24794;51.982;5.878;2023-03-31T00:55:46;12.20;99.90
39033;DHT22;24794;51.982;5.878;2023-03-31T00:56:50;12.20;99.90
39033;DHT22;24794;51.982;5.878;2023-03-31T00:57:53;12.20;99.90
39033;DHT22;24794;51.982;5.878;2023-03-31T00:58:56;12.10;99.90
39033;DHT22;24794;51.982;5.878;2023-03-31T01:00:03;12.10;99.90
39033;DHT22;24794;51.982;5.878;2023-03-31T01:01:18;12.10;99.90
39033;DHT22;24794;51.982;5.878;2023-03-31T01:02:19;12.10;99.90
39033;DHT22;24794;51.982;5.878;2023-03-31T01:03:20;12.10;99.90
39033;DHT22;24794;51.982;5.878;2023-03-31T01:04:21;12.00;99.90
39033;DHT22;24794;51.982;5.878;2023-03-31T01:05:26;12.00;99.90
39033;DHT22;24794;51.982;5.878;2023-03-31T01:06:28;11.90;99.90
39033;DHT22;24794;51.982;5.878;2023-03-31T01:07:43;11.90;99.90
39033;DHT22;24794;51.982;5.878;2023-03-31T01:08:47;11.90;99.90
39033;DHT22;24794;51.982;5.878;2023-03-31T01:09:50;11.90;99.90
39033;DHT22;24794;51.982;5.878;2023-03-31T01:10:56;11.80;99.90
39033;DHT22;24794;51.982;5.878;2023-03-31T01:11:57;11.80;99.90
39033;DHT22;24794;51.982;5.878;2023-03-31T01:12:57;11.80;99.90
39033;DHT22;24794;51.982;5.878;2023-03-31T01:13:58;11.80;99.90
39033;DHT22;24794;51.982;5.878;2023-03-31T01:14:59;11.80;99.90
39033;DHT22;24794;51.982;5.878;2023-03-31T01:16:00;11.80;99.90
39033;DHT22;24794;51.982;5.878;2023-03-31T01:17:01;11.70;99.90
39033;DHT22;24794;51.982;5.878;2023-03-31T01:18:03;11.70;99.90
39033;DHT22;24794;51.982;5.878;2023-03-31T01:19:12;11.70;99.90
39033;DHT22;24794;51.982;5.878;2023-03-31T01:22:11;11.70;99.90
39033;DHT22;24794;51.982;5.878;2023-03-31T01:25:41;11.60;99.90
39033;DHT22;24794;51.982;5.878;2023-03-31T01:28:40;11.60;99.90
39033;DHT22;24794;51.982;5.878;2023-03-31T01:30:24;11.60;99.90
39033;DHT22;24794;51.982;5.878;2023-03-31T01:31:53;11.60;99.90
39033;DHT22;24794;51.982;5.878;2023-03-31T01:33:32;11.60;99.90
39033;DHT22;24794;51.982;5.878;2023-03-31T01:43:22;11.70;99.90
39033;DHT22;24794;51.982;5.878;2023-03-31T01:44:44;11.70;99.90
39033;DHT22;24794;51.982;5.878;2023-03-31T01:46:01;11.70;99.90
39033;DHT22;24794;51.982;5.878;2023-03-31T01:47:15;11.70;99.90
39033;DHT22;24794;51.982;5.878;2023-03-31T01:48:37;11.70;99.90
39033;DHT22;24794;51.982;5.878;2023-03-31T01:49:50;11.70;99.90
39033;DHT22;24794;51.982;5.878;2023-03-31T01:51:01;11.70;99.90
39033;DHT22;24794;51.982;5.878;2023-03-31T01:52:07;11.80;99.90
39033;DHT22;24794;51.982;5.878;2023-03-31T01:57:30;11.80;99.90
39033;DHT22;24794;51.982;5.878;2023-03-31T01:59:44;11.90;99.90
39033;DHT22;24794;51.982;5.878;2023-03-31T02:00:57;11.90;99.90
39033;DHT22;24794;51.982;5.878;2023-03-31T02:02:09;11.90;99.90
39033;DHT22;24794;51.982;5.878;2023-03-31T02:03:20;11.90;99.90
39033;DHT22;24794;51.982;5.878;2023-03-31T02:04:28;11.90;99.90
39033;DHT22;24794;51.982;5.878;2023-03-31T02:05:37;11.90;99.90
39033;DHT22;24794;51.982;5.878;2023-03-31T02:06:42;11.90;99.90
39033;DHT22;24794;51.982;5.878;2023-03-31T02:07:49;11.90;99.90
39033;DHT22;24794;51.982;5.878;2023-03-31T02:08:59;11.90;99.90
39033;DHT22;24794;51.982;5.878;2023-03-31T02:10:06;11.90;99.90
39033;DHT22;24794;51.982;5.878;2023-03-31T02:11:07;11.90;99.90
39033;DHT22;24794;51.982;5.878;2023-03-31T02:12:10;11.90;99.90
39033;DHT22;24794;51.982;5.878;2023-03-31T02:13:12;11.90;99.90
39033;DHT22;24794;51.982;5.878;2023-03-31T02:14:16;11.90;99.90
39033;DHT22;24794;51.982;5.878;2023-03-31T02:15:21;11.90;99.90
39033;DHT22;24794;51.982;5.878;2023-03-31T02:16:25;11.90;99.90
39033;DHT22;24794;51.982;5.878;2023-03-31T02:17:27;11.90;99.90
39033;DHT22;24794;51.982;5.878;2023-03-31T02:18:31;11.90;99.90
39033;DHT22;24794;51.982;5.878;2023-03-31T02:19:35;11.90;99.90
39033;DHT22;24794;51.982;5.878;2023-03-31T02:20:40;12.00;99.90
39033;DHT22;24794;51.982;5.878;2023-03-31T02:21:42;12.00;99.90
39033;DHT22;24794;51.982;5.878;2023-03-31T02:22:45;12.00;99.90
39033;DHT22;24794;51.982;5.878;2023-03-31T02:23:48;12.00;99.90
39033;DHT22;24794;51.982;5.878;2023-03-31T02:24:51;12.00;99.90
39033;DHT22;24794;51.982;5.878;2023-03-31T02:26:01;12.00;99.90
39033;DHT22;24794;51.982;5.878;2023-03-31T02:27:08;12.00;99.90
39033;DHT22;24794;51.982;5.878;2023-03-31T02:28:13;12.00;99.90
39033;DHT22;24794;51.982;5.878;2023-03-31T02:29:15;12.00;99.90
39033;DHT22;24794;51.982;5.878;2023-03-31T02:30:16;12.00;99.90
39033;DHT22;24794;51.982;5.878;2023-03-31T02:32:37;12.00;99.90
39033;DHT22;24794;51.982;5.878;2023-03-31T02:33:38;12.00;99.90
39033;DHT22;24794;51.982;5.878;2023-03-31T02:34:38;11.90;99.90
39033;DHT22;24794;51.982;5.878;2023-03-31T02:35:39;11.90;99.90
39033;DHT22;24794;51.982;5.878;2023-03-31T02:36:41;11.90;99.90
39033;DHT22;24794;51.982;5.878;2023-03-31T02:37:44;11.90;99.90
39033;DHT22;24794;51.982;5.878;2023-03-31T02:38:48;11.90;99.90
39033;DHT22;24794;51.982;5.878;2023-03-31T02:39:52;11.90;99.90
39033;DHT22;24794;51.982;5.878;2023-03-31T02:40:53;11.90;99.90
39033;DHT22;24794;51.982;5.878;2023-03-31T02:41:53;11.90;99.90
39033;DHT22;24794;51.982;5.878;2023-03-31T02:42:54;11.90;99.90
39033;DHT22;24794;51.982;5.878;2023-03-31T02:43:56;11.90;99.90
39033;DHT22;24794;51.982;5.878;2023-03-31T02:45:02;11.90;99.90
39033;DHT22;24794;51.982;5.878;2023-03-31T02:46:03;11.90;99.90
39033;DHT22;24794;51.982;5.878;2023-03-31T02:47:09;11.90;99.90
39033;DHT22;24794;51.982;5.878;2023-03-31T02:48:26;11.90;99.90
39033;DHT22;24794;51.982;5.878;2023-03-31T02:49:28;11.90;99.90
39033;DHT22;24794;51.982;5.878;2023-03-31T02:50:33;11.90;99.90
39033;DHT22;24794;51.982;5.878;2023-03-31T02:53:09;11.90;99.90
39033;DHT22;24794;51.982;5.878;2023-03-31T02:55:52;11.90;99.90
39033;DHT22;24794;51.982;5.878;2023-03-31T03:11:24;11.60;99.90
39033;DHT22;24794;51.982;5.878;2023-03-31T03:14:08;11.60;99.90
39033;DHT22;24794;51.982;5.878;2023-03-31T03:15:21;11.50;99.90
39033;DHT22;24794;51.982;5.878;2023-03-31T03:16:34;11.50;99.90
39033;DHT22;24794;51.982;5.878;2023-03-31T03:17:40;11.50;99.90
39033;DHT22;24794;51.982;5.878;2023-03-31T03:18:41;11.50;99.90
39033;DHT22;24794;51.982;5.878;2023-03-31T03:19:42;11.50;99.90
39033;DHT22;24794;51.982;5.878;2023-03-31T03:20:42;11.50;99.90
39033;DHT22;24794;51.982;5.878;2023-03-31T03:21:48;11.50;99.90
39033;DHT22;24794;51.982;5.878;2023-03-31T03:22:48;11.50;99.90
39033;DHT22;24794;51.982;5.878;2023-03-31T03:23:49;11.50;99.90
39033;DHT22;24794;51.982;5.878;2023-03-31T03:24:51;11.50;99.90
39033;DHT22;24794;51.982;5.878;2023-03-31T03:25:51;11.40;99.90
39033;DHT22;24794;51.982;5.878;2023-03-31T03:26:52;11.50;99.90
39033;DHT22;24794;51.982;5.878;2023-03-31T03:27:52;11.40;99.90
39033;DHT22;24794;51.982;5.878;2023-03-31T03:28:54;11.50;99.90
39033;DHT22;24794;51.982;5.878;2023-03-31T03:29:55;11.40;99.90
39033;DHT22;24794;51.982;5.878;2023-03-31T03:30:55;11.40;99.90
39033;DHT22;24794;51.982;5.878;2023-03-31T03:31:56;11.40;99.90
39033;DHT22;24794;51.982;5.878;2023-03-31T03:32:57;11.40;99.90
39033;DHT22;24794;51.982;5.878;2023-03-31T03:33:58;11.40;99.90
39033;DHT22;24794;51.982;5.878;2023-03-31T03:35:03;11.50;99.90
39033;DHT22;24794;51.982;5.878;2023-03-31T03:36:04;11.50;99.90
39033;DHT22;24794;51.982;5.878;2023-03-31T03:37:05;11.50;99.90
39033;DHT22;24794;51.982;5.878;2023-03-31T03:38:05;11.50;99.90
39033;DHT22;24794;51.982;5.878;2023-03-31T03:39:06;11.50;99.90
39033;DHT22;24794;51.982;5.878;2023-03-31T03:40:08;11.50;99.90
39033;DHT22;24794;51.982;5.878;2023-03-31T03:41:09;11.50;99.90
39033;DHT22;24794;51.982;5.878;2023-03-31T03:42:10;11.50;99.90
39033;DHT22;24794;51.982;5.878;2023-03-31T03:43:10;11.50;99.90
39033;DHT22;24794;51.982;5.878;2023-03-31T03:44:11;11.50;99.90
39033;DHT22;24794;51.982;5.878;2023-03-31T03:45:11;11.50;99.90
39033;DHT22;24794;51.982;5.878;2023-03-31T03:46:12;11.50;99.90
39033;DHT22;24794;51.982;5.878;2023-03-31T03:47:13;11.50;99.90
39033;DHT22;24794;51.982;5.878;2023-03-31T03:48:13;11.50;99.90
39033;DHT22;24794;51.982;5.878;2023-03-31T03:49:14;11.50;99.90
39033;DHT22;24794;51.982;5.878;2023-03-31T03:50:15;11.50;99.90
39033;DHT22;24794;51.982;5.878;2023-03-31T03:51:15;11.50;99.90
39033;DHT22;24794;51.982;5.878;2023-03-31T03:52:16;11.50;99.90
39033;DHT22;24794;51.982;5.878;2023-03-31T03:53:16;11.60;99.90
39033;DHT22;24794;51.982;5.878;2023-03-31T03:54:17;11.60;99.90
39033;DHT22;24794;51.982;5.878;2023-03-31T03:55:18;11.60;99.90
39033;DHT22;24794;51.982;5.878;2023-03-31T03:56:19;11.60;99.90
39033;DHT22;24794;51.982;5.878;2023-03-31T03:57:21;11.60;99.90
39033;DHT22;24794;51.982;5.878;2023-03-31T03:58:22;11.60;99.90
39033;DHT22;24794;51.982;5.878;2023-03-31T03:59:22;11.60;99.90
39033;DHT22;24794;51.982;5.878;2023-03-31T04:00:23;11.60;99.90
39033;DHT22;24794;51.982;5.878;2023-03-31T04:01:24;11.60;99.90
39033;DHT22;24794;51.982;5.878;2023-03-31T04:02:25;11.70;99.90
39033;DHT22;24794;51.982;5.878;2023-03-31T04:03:27;11.70;99.90
39033;DHT22;24794;51.982;5.878;2023-03-31T04:04:28;11.70;99.90
39033;DHT22;24794;51.982;5.878;2023-03-31T04:05:28;11.70;99.90
39033;DHT22;24794;51.982;5.878;2023-03-31T04:06:29;11.70;99.90
39033;DHT22;24794;51.982;5.878;2023-03-31T04:07:30;11.70;99.90
39033;DHT22;24794;51.982;5.878;2023-03-31T04:08:31;11.80;99.90
39033;DHT22;24794;51.982;5.878;2023-03-31T04:09:31;11.80;99.90
39033;DHT22;24794;51.982;5.878;2023-03-31T04:10:32;11.80;99.90
39033;DHT22;24794;51.982;5.878;2023-03-31T04:11:33;11.80;99.90
39033;DHT22;24794;51.982;5.878;2023-03-31T04:12:34;11.80;99.90
39033;DHT22;24794;51.982;5.878;2023-03-31T04:13:35;11.80;99.90
39033;DHT22;24794;51.982;5.878;2023-03-31T04:14:36;11.80;99.90
39033;DHT22;24794;51.982;5.878;2023-03-31T04:15:36;11.80;99.90
39033;DHT22;24794;51.982;5.878;2023-03-31T04:16:37;11.80;99.90
39033;DHT22;24794;51.982;5.878;2023-03-31T04:17:39;11.80;99.90
39033;DHT22;24794;51.982;5.878;2023-03-31T04:18:40;11.80;99.90
39033;DHT22;24794;51.982;5.878;2023-03-31T04:19:42;11.80;99.90
39033;DHT22;24794;51.982;5.878;2023-03-31T04:20:43;11.70;99.90
39033;DHT22;24794;51.982;5.878;2023-03-31T04:21:44;11.70;99.90
39033;DHT22;24794;51.982;5.878;2023-03-31T04:22:45;11.70;99.90
39033;DHT22;24794;51.982;5.878;2023-03-31T04:23:46;11.70;99.90
39033;DHT22;24794;51.982;5.878;2023-03-31T04:24:47;11.70;99.90
39033;DHT22;24794;51.982;5.878;2023-03-31T04:25:52;11.80;99.90
39033;DHT22;24794;51.982;5.878;2023-03-31T04:26:52;11.80;99.90
39033;DHT22;24794;51.982;5.878;2023-03-31T04:27:53;11.70;99.90
39033;DHT22;24794;51.982;5.878;2023-03-31T04:28:54;11.70;99.90
39033;DHT22;24794;51.982;5.878;2023-03-31T04:29:59;11.70;99.90
39033;DHT22;24794;51.982;5.878;2023-03-31T04:31:00;11.70;99.90
39033;DHT22;24794;51.982;5.878;2023-03-31T04:32:02;11.60;99.90
39033;DHT22;24794;51.982;5.878;2023-03-31T04:33:02;11.60;99.90
39033;DHT22;24794;51.982;5.878;2023-03-31T04:34:05;11.60;99.90
39033;DHT22;24794;51.982;5.878;2023-03-31T04:35:12;11.60;99.90
39033;DHT22;24794;51.982;5.878;2023-03-31T04:36:14;11.60;99.90
39033;DHT22;24794;51.982;5.878;2023-03-31T04:37:18;11.60;99.90
39033;DHT22;24794;51.982;5.878;2023-03-31T04:38:22;11.60;99.90
39033;DHT22;24794;51.982;5.878;2023-03-31T04:39:23;11.50;99.90
39033;DHT22;24794;51.982;5.878;2023-03-31T04:40:26;11.50;99.90
39033;DHT22;24794;51.982;5.878;2023-03-31T04:41:26;11.50;99.90
39033;DHT22;24794;51.982;5.878;2023-03-31T04:42:27;11.50;99.90
39033;DHT22;24794;51.982;5.878;2023-03-31T04:43:27;11.50;99.90
39033;DHT22;24794;51.982;5.878;2023-03-31T04:44:28;11.50;99.90
39033;DHT22;24794;51.982;5.878;2023-03-31T04:45:29;11.50;99.90
39033;DHT22;24794;51.982;5.878;2023-03-31T04:46:30;11.50;99.90
39033;DHT22;24794;51.982;5.878;2023-03-31T04:47:31;11.60;99.90
39033;DHT22;24794;51.982;5.878;2023-03-31T04:48:31;11.60;99.90
39033;DHT22;24794;51.982;5.878;2023-03-31T04:49:32;11.60;99.90
39033;DHT22;24794;51.982;5.878;2023-03-31T04:50:33;11.60;99.90
39033;DHT22;24794;51.982;5.878;2023-03-31T04:51:33;11.60;99.90
39033;DHT22;24794;51.982;5.878;2023-03-31T04:52:34;11.60;99.90
39033;DHT22;24794;51.982;5.878;2023-03-31T04:53:35;11.60;99.90
39033;DHT22;24794;51.982;5.878;2023-03-31T04:54:35;11.70;99.90
39033;DHT22;24794;51.982;5.878;2023-03-31T04:55:36;11.70;99.90
39033;DHT22;24794;51.982;5.878;2023-03-31T04:56:36;11.70;99.90
39033;DHT22;24794;51.982;5.878;2023-03-31T04:57:37;11.70;99.90
39033;DHT22;24794;51.982;5.878;2023-03-31T04:58:38;11.70;99.90
39033;DHT22;24794;51.982;5.878;2023-03-31T04:59:38;11.70;99.90
39033;DHT22;24794;51.982;5.878;2023-03-31T05:00:39;11.70;99.90
39033;DHT22;24794;51.982;5.878;2023-03-31T05:01:39;11.70;99.90
39033;DHT22;24794;51.982;5.878;2023-03-31T05:02:44;11.70;99.90
39033;DHT22;24794;51.982;5.878;2023-03-31T05:03:46;11.80;99.90
39033;DHT22;24794;51.982;5.878;2023-03-31T05:04:50;11.80;99.90
39033;DHT22;24794;51.982;5.878;2023-03-31T05:05:50;11.80;99.90
39033;DHT22;24794;51.982;5.878;2023-03-31T05:06:51;11.70;99.90
39033;DHT22;24794;51.982;5.878;2023-03-31T05:07:51;11.70;99.90
39033;DHT22;24794;51.982;5.878;2023-03-31T05:08:52;11.70;99.90
39033;DHT22;24794;51.982;5.878;2023-03-31T05:09:52;11.70;99.90
39033;DHT22;24794;51.982;5.878;2023-03-31T05:10:53;11.70;99.90
39033;DHT22;24794;51.982;5.878;2023-03-31T05:11:54;11.70;99.90
39033;DHT22;24794;51.982;5.878;2023-03-31T05:12:56;11.70;99.90
39033;DHT22;24794;51.982;5.878;2023-03-31T05:13:56;11.70;99.90
39033;DHT22;24794;51.982;5.878;2023-03-31T05:14:57;11.80;99.90
39033;DHT22;24794;51.982;5.878;2023-03-31T05:15:58;11.80;99.90
39033;DHT22;24794;51.982;5.878;2023-03-31T05:17:04;11.70;99.90
39033;DHT22;24794;51.982;5.878;2023-03-31T05:18:06;11.80;99.90
39033;DHT22;24794;51.982;5.878;2023-03-31T05:19:07;11.80;99.90
39033;DHT22;24794;51.982;5.878;2023-03-31T05:20:08;11.80;99.90
39033;DHT22;24794;51.982;5.878;2023-03-31T05:21:10;11.80;99.90
39033;DHT22;24794;51.982;5.878;2023-03-31T05:22:11;11.80;99.90
39033;DHT22;24794;51.982;5.878;2023-03-31T05:23:12;11.80;99.90
39033;DHT22;24794;51.982;5.878;2023-03-31T05:24:13;11.80;99.90
39033;DHT22;24794;51.982;5.878;2023-03-31T05:25:14;11.70;99.90
39033;DHT22;24794;51.982;5.878;2023-03-31T05:26:18;11.70;99.90
39033;DHT22;24794;51.982;5.878;2023-03-31T05:27:18;11.60;99.90
39033;DHT22;24794;51.982;5.878;2023-03-31T05:28:21;11.60;99.90
39033;DHT22;24794;51.982;5.878;2023-03-31T05:29:22;11.60;99.90
39033;DHT22;24794;51.982;5.878;2023-03-31T05:30:23;11.60;99.90
39033;DHT22;24794;51.982;5.878;2023-03-31T05:31:25;11.60;99.90
39033;DHT22;24794;51.982;5.878;2023-03-31T05:32:27;11.60;99.90
39033;DHT22;24794;51.982;5.878;2023-03-31T05:33:28;11.60;99.90
39033;DHT22;24794;51.982;5.878;2023-03-31T05:34:28;11.60;99.90
39033;DHT22;24794;51.982;5.878;2023-03-31T05:35:29;11.60;99.90
39033;DHT22;24794;51.982;5.878;2023-03-31T05:36:29;11.60;99.90
39033;DHT22;24794;51.982;5.878;2023-03-31T05:37:31;11.60;99.90
39033;DHT22;24794;51.982;5.878;2023-03-31T05:38:32;11.60;99.90
39033;DHT22;24794;51.982;5.878;2023-03-31T05:39:34;11.60;99.90
39033;DHT22;24794;51.982;5.878;2023-03-31T05:40:34;11.60;99.90
39033;DHT22;24794;51.982;5.878;2023-03-31T05:41:35;11.60;99.90
39033;DHT22;24794;51.982;5.878;2023-03-31T05:42:36;11.60;99.90
39033;DHT22;24794;51.982;5.878;2023-03-31T05:43:37;11.60;99.90
39033;DHT22;24794;51.982;5.878;2023-03-31T05:44:38;11.60;99.90
39033;DHT22;24794;51.982;5.878;2023-03-31T05:45:39;11.60;99.90
39033;DHT22;24794;51.982;5.878;2023-03-31T05:46:40;11.60;99.90
39033;DHT22;24794;51.982;5.878;2023-03-31T05:47:41;11.60;99.90
39033;DHT22;24794;51.982;5.878;2023-03-31T05:48:41;11.50;99.90
39033;DHT22;24794;51.982;5.878;2023-03-31T05:49:42;11.50;99.90
39033;DHT22;24794;51.982;5.878;2023-03-31T05:50:43;11.50;99.90
39033;DHT22;24794;51.982;5.878;2023-03-31T05:51:44;11.60;99.90
39033;DHT22;24794;51.982;5.878;2023-03-31T05:52:44;11.50;99.90
39033;DHT22;24794;51.982;5.878;2023-03-31T05:53:45;11.50;99.90
39033;DHT22;24794;51.982;5.878;2023-03-31T05:54:46;11.50;99.90
39033;DHT22;24794;51.982;5.878;2023-03-31T05:55:46;11.50;99.90
39033;DHT22;24794;51.982;5.878;2023-03-31T05:56:47;11.50;99.90
39033;DHT22;24794;51.982;5.878;2023-03-31T05:57:47;11.50;99.90
39033;DHT22;24794;51.982;5.878;2023-03-31T05:58:48;11.50;99.90
39033;DHT22;24794;51.982;5.878;2023-03-31T05:59:48;11.50;99.90
39033;DHT22;24794;51.982;5.878;2023-03-31T06:00:49;11.50;99.90
39033;DHT22;24794;51.982;5.878;2023-03-31T06:01:53;11.50;99.90
39033;DHT22;24794;51.982;5.878;2023-03-31T06:02:53;11.60;99.90
39033;DHT22;24794;51.982;5.878;2023-03-31T06:03:54;11.60;99.90
39033;DHT22;24794;51.982;5.878;2023-03-31T06:04:55;11.60;99.90
39033;DHT22;24794;51.982;5.878;2023-03-31T06:05:55;11.60;99.90
39033;DHT22;24794;51.982;5.878;2023-03-31T06:06:57;11.60;99.90
39033;DHT22;24794;51.982;5.878;2023-03-31T06:07:58;11.60;99.90
39033;DHT22;24794;51.982;5.878;2023-03-31T06:08:58;11.60;99.90
39033;DHT22;24794;51.982;5.878;2023-03-31T06:09:59;11.60;99.90
39033;DHT22;24794;51.982;5.878;2023-03-31T06:10:59;11.60;99.90
39033;DHT22;24794;51.982;5.878;2023-03-31T06:12:06;11.50;99.90
39033;DHT22;24794;51.982;5.878;2023-03-31T06:13:07;11.50;99.90
39033;DHT22;24794;51.982;5.878;2023-03-31T06:14:08;11.50;99.90
39033;DHT22;24794;51.982;5.878;2023-03-31T06:15:08;11.50;99.90
39033;DHT22;24794;51.982;5.878;2023-03-31T06:16:11;11.60;99.90
39033;DHT22;24794;51.982;5.878;2023-03-31T06:17:12;11.60;99.90
39033;DHT22;24794;51.982;5.878;2023-03-31T06:18:12;11.60;99.90
39033;DHT22;24794;51.982;5.878;2023-03-31T06:19:13;11.60;99.90
39033;DHT22;24794;51.982;5.878;2023-03-31T06:20:13;11.60;99.90
39033;DHT22;24794;51.982;5.878;2023-03-31T06:21:16;11.60;99.90
39033;DHT22;24794;51.982;5.878;2023-03-31T06:22:17;11.60;99.90
39033;DHT22;24794;51.982;5.878;2023-03-31T06:23:18;11.50;99.90
39033;DHT22;24794;51.982;5.878;2023-03-31T06:24:18;11.50;99.90
39033;DHT22;24794;51.982;5.878;2023-03-31T06:25:19;11.50;99.90
39033;DHT22;24794;51.982;5.878;2023-03-31T06:26:19;11.50;99.90
39033;DHT22;24794;51.982;5.878;2023-03-31T06:27:21;11.50;99.90
39033;DHT22;24794;51.982;5.878;2023-03-31T06:28:22;11.50;99.90
39033;DHT22;24794;51.982;5.878;2023-03-31T06:29:22;11.50;99.90
39033;DHT22;24794;51.982;5.878;2023-03-31T06:30:23;11.50;99.90
39033;DHT22;24794;51.982;5.878;2023-03-31T06:31:24;11.50;99.90
39033;DHT22;24794;51.982;5.878;2023-03-31T06:32:25;11.50;99.90
39033;DHT22;24794;51.982;5.878;2023-03-31T06:33:26;11.50;99.90
39033;DHT22;24794;51.982;5.878;2023-03-31T06:34:27;11.50;99.90
39033;DHT22;24794;51.982;5.878;2023-03-31T06:35:27;11.50;99.90
39033;DHT22;24794;51.982;5.878;2023-03-31T06:36:28;11.50;99.90
39033;DHT22;24794;51.982;5.878;2023-03-31T06:37:28;11.50;99.90
39033;DHT22;24794;51.982;5.878;2023-03-31T06:38:29;11.50;99.90
39033;DHT22;24794;51.982;5.878;2023-03-31T06:39:30;11.50;99.90
39033;DHT22;24794;51.982;5.878;2023-03-31T06:40:30;11.50;99.90
39033;DHT22;24794;51.982;5.878;2023-03-31T06:41:31;11.50;99.90
39033;DHT22;24794;51.982;5.878;2023-03-31T06:42:31;11.50;99.90
39033;DHT22;24794;51.982;5.878;2023-03-31T06:43:32;11.50;99.90
39033;DHT22;24794;51.982;5.878;2023-03-31T06:44:33;11.50;99.90
39033;DHT22;24794;51.982;5.878;2023-03-31T06:45:35;11.50;99.90
39033;DHT22;24794;51.982;5.878;2023-03-31T06:46:36;11.50;99.90
39033;DHT22;24794;51.982;5.878;2023-03-31T06:47:36;11.50;99.90
39033;DHT22;24794;51.982;5.878;2023-03-31T06:48:37;11.50;99.90
39033;DHT22;24794;51.982;5.878;2023-03-31T06:49:38;11.50;99.90
39033;DHT22;24794;51.982;5.878;2023-03-31T06:50:39;11.50;99.90
39033;DHT22;24794;51.982;5.878;2023-03-31T06:51:41;11.50;99.90
39033;DHT22;24794;51.982;5.878;2023-03-31T06:52:41;11.50;99.90
39033;DHT22;24794;51.982;5.878;2023-03-31T06:53:42;11.50;99.90
39033;DHT22;24794;51.982;5.878;2023-03-31T06:54:42;11.50;99.90
39033;DHT22;24794;51.982;5.878;2023-03-31T06:55:43;11.50;99.90
39033;DHT22;24794;51.982;5.878;2023-03-31T06:56:43;11.50;99.90
39033;DHT22;24794;51.982;5.878;2023-03-31T06:57:44;11.50;99.90
39033;DHT22;24794;51.982;5.878;2023-03-31T06:58:44;11.50;99.90
39033;DHT22;24794;51.982;5.878;2023-03-31T06:59:45;11.50;99.90
39033;DHT22;24794;51.982;5.878;2023-03-31T07:00:46;11.50;99.90
39033;DHT22;24794;51.982;5.878;2023-03-31T07:01:46;11.50;99.90
39033;DHT22;24794;51.982;5.878;2023-03-31T07:02:47;11.50;99.90
39033;DHT22;24794;51.982;5.878;2023-03-31T07:03:48;11.50;99.90
39033;DHT22;24794;51.982;5.878;2023-03-31T07:04:48;11.50;99.90
39033;DHT22;24794;51.982;5.878;2023-03-31T07:05:50;11.50;99.90
39033;DHT22;24794;51.982;5.878;2023-03-31T07:06:51;11.50;99.90
39033;DHT22;24794;51.982;5.878;2023-03-31T07:07:53;11.50;99.90
39033;DHT22;24794;51.982;5.878;2023-03-31T07:08:54;11.50;99.90
39033;DHT22;24794;51.982;5.878;2023-03-31T07:09:54;11.50;99.90
39033;DHT22;24794;51.982;5.878;2023-03-31T07:10:57;11.50;99.90
39033;DHT22;24794;51.982;5.878;2023-03-31T07:11:58;11.50;99.90
39033;DHT22;24794;51.982;5.878;2023-03-31T07:12:58;11.40;99.90
39033;DHT22;24794;51.982;5.878;2023-03-31T07:13:59;11.50;99.90
39033;DHT22;24794;51.982;5.878;2023-03-31T07:15:00;11.40;99.90
39033;DHT22;24794;51.982;5.878;2023-03-31T07:16:00;11.40;99.90
39033;DHT22;24794;51.982;5.878;2023-03-31T07:17:01;11.40;99.90